createdAt,value
2023-03-06T00:07:08.967Z,63.10
2023-03-06T00:17:14.812Z,53.40
2023-03-06T00:27:20.430Z,56.10
2023-03-06T00:37:27.227Z,58.90
2023-03-06T00:47:32.838Z,62.50
2023-03-06T00:57:38.855Z,72.60
2023-03-06T01:07:44.520Z,65.60
2023-03-06T01:17:53.111Z,72.40
2023-03-06T01:27:58.850Z,102.80
2023-03-06T01:38:04.657Z,76.50
2023-03-06T01:48:10.416Z,65.50
2023-03-06T01:58:19.553Z,77.60
2023-03-06T02:08:26.226Z,69.90
2023-03-06T02:18:32.355Z,76.90
2023-03-06T02:28:39.912Z,66.00
2023-03-06T02:38:49.990Z,65.00
2023-03-06T02:48:56.011Z,58.70
2023-03-06T02:59:01.722Z,62.80
2023-03-06T03:09:07.486Z,63.20
2023-03-06T03:19:13.514Z,59.10
2023-03-06T03:29:19.660Z,60.40
2023-03-06T03:39:25.525Z,49.40
2023-03-06T03:49:31.631Z,55.00
2023-03-06T03:59:37.289Z,52.00
2023-03-06T04:09:43.088Z,51.50
2023-03-06T04:19:49.131Z,51.70
2023-03-06T04:29:56.485Z,49.00
2023-03-06T04:40:02.141Z,49.40
2023-03-06T04:50:11.105Z,50.70
2023-03-06T05:00:19.968Z,45.80
2023-03-06T05:10:25.829Z,39.30
2023-03-06T05:20:32.260Z,48.00
2023-03-06T05:30:38.367Z,53.20
2023-03-06T05:40:45.993Z,51.90
2023-03-06T05:50:57.840Z,54.70
2023-03-06T06:01:09.400Z,52.20
2023-03-06T06:11:15.971Z,50.80
2023-03-06T06:21:22.046Z,40.40
2023-03-06T06:31:27.679Z,47.90
2023-03-06T06:41:53.103Z,57.60
2023-03-06T06:51:59.126Z,41.20
2023-03-06T07:02:05.868Z,46.00
2023-03-06T07:12:11.757Z,35.10
2023-03-06T07:22:17.437Z,31.90
2023-03-06T07:32:23.187Z,32.10
2023-03-06T07:42:29.299Z,26.70
2023-03-06T07:52:34.995Z,25.60
2023-03-06T08:02:42.162Z,23.60
2023-03-06T08:12:48.160Z,24.50
2023-03-06T08:22:53.879Z,24.30
2023-03-06T08:32:59.847Z,27.30
2023-03-06T08:43:06.404Z,21.80
2023-03-06T08:53:12.064Z,23.60
2023-03-06T09:03:17.653Z,19.40
2023-03-06T09:13:23.276Z,15.70
2023-03-06T09:23:29.012Z,18.40
2023-03-06T09:33:34.710Z,25.40
2023-03-06T09:43:42.664Z,27.90
2023-03-06T09:54:02.319Z,19.00
2023-03-06T10:04:20.565Z,27.40
2023-03-06T10:14:36.507Z,19.40
2023-03-06T10:24:52.217Z,19.40
2023-03-06T10:35:01.277Z,17.40
2023-03-06T10:45:15.327Z,16.00
2023-03-06T10:55:31.626Z,14.10
2023-03-06T11:05:38.010Z,13.60
2023-03-06T11:15:59.202Z,14.70
2023-03-06T11:26:23.820Z,12.80
2023-03-06T11:36:37.900Z,11.20
2023-03-06T11:46:50.595Z,9.90
2023-03-06T11:57:00.633Z,10.80
2023-03-06T12:07:22.447Z,11.00
2023-03-06T12:17:37.547Z,10.70
2023-03-06T12:27:51.002Z,9.00
2023-03-06T12:38:08.490Z,11.70
2023-03-06T12:48:20.194Z,12.40
2023-03-06T12:58:47.995Z,25.00
2023-03-06T13:09:21.005Z,12.50
2023-03-06T13:19:27.951Z,12.50
2023-03-06T13:30:14.828Z,8.20
2023-03-06T13:40:35.498Z,10.30
2023-03-06T13:50:43.519Z,8.50
2023-03-06T14:01:19.162Z,10.10
2023-03-06T14:11:25.820Z,11.50
2023-03-06T14:21:38.001Z,13.70
2023-03-06T14:31:45.305Z,10.90
2023-03-06T14:41:51.297Z,13.00
2023-03-06T14:52:00.558Z,14.40
2023-03-06T15:02:10.498Z,17.60
2023-03-06T15:12:38.708Z,16.40
2023-03-06T15:22:44.992Z,17.50
2023-03-06T15:32:50.742Z,14.80
2023-03-06T15:42:56.817Z,12.50
2023-03-06T15:53:02.706Z,12.50
2023-03-06T16:03:10.759Z,12.70
2023-03-06T16:13:20.379Z,10.90
2023-03-06T16:23:26.263Z,15.30
2023-03-06T16:33:32.120Z,14.20
2023-03-06T16:43:37.858Z,13.30
2023-03-06T16:53:43.917Z,11.60
2023-03-06T17:03:49.921Z,17.50
2023-03-06T17:13:55.797Z,13.20
2023-03-06T17:24:03.731Z,13.30
2023-03-06T17:34:09.567Z,14.70
2023-03-06T17:44:16.479Z,70.40
2023-03-06T17:54:22.380Z,45.20
2023-03-06T18:04:28.699Z,19.70
2023-03-06T18:14:34.627Z,41.70
2023-03-06T18:24:40.265Z,52.60
2023-03-06T18:34:46.286Z,56.10
2023-03-06T18:44:51.921Z,46.30
2023-03-06T18:54:57.576Z,58.80
2023-03-06T19:05:03.351Z,27.00
2023-03-06T19:15:11.315Z,83.70
2023-03-06T19:25:17.299Z,25.10
2023-03-06T19:35:23.507Z,23.40
2023-03-06T19:45:29.182Z,25.30
2023-03-06T19:55:34.853Z,18.60
2023-03-06T20:05:48.322Z,22.00
2023-03-06T20:15:54.171Z,18.80
2023-03-06T20:26:04.118Z,18.80
2023-03-06T20:36:15.272Z,14.30
2023-03-06T20:46:22.760Z,17.70
2023-03-06T20:56:30.297Z,14.40
2023-03-06T21:06:36.593Z,9.20
2023-03-06T21:16:42.679Z,9.50
2023-03-06T21:26:48.581Z,10.00
2023-03-06T21:36:54.217Z,11.40
2023-03-06T21:46:59.927Z,8.50
2023-03-06T21:57:05.901Z,9.90
2023-03-06T22:07:11.624Z,11.50
2023-03-06T22:17:17.529Z,10.30
2023-03-06T22:27:23.393Z,4.40
2023-03-06T22:37:29.081Z,5.50
2023-03-06T22:47:36.515Z,6.60
2023-03-06T22:57:44.502Z,8.80
2023-03-06T23:07:50.466Z,9.70
2023-03-06T23:17:56.226Z,10.70
2023-03-06T23:28:02.074Z,13.40
2023-03-06T23:38:07.758Z,14.30
2023-03-06T23:48:17.829Z,12.20
2023-03-06T23:58:23.785Z,14.00
